createdAt,value
2022-08-21T00:00:35.087Z,1.45
2022-08-21T00:04:57.480Z,1.20
2022-08-21T00:08:27.325Z,1.40
2022-08-21T00:13:18.670Z,1.40
2022-08-21T00:17:50.455Z,1.23
2022-08-21T00:26:02.559Z,1.13
2022-08-21T00:33:37.798Z,1.45
2022-08-21T00:37:02.897Z,1.35
2022-08-21T00:45:19.966Z,1.30
2022-08-21T00:53:43.008Z,1.70
2022-08-21T00:57:46.671Z,1.80
2022-08-21T01:01:53.597Z,1.50
2022-08-21T01:11:14.524Z,1.38
2022-08-21T01:19:20.888Z,1.20
2022-08-21T01:27:16.920Z,1.50
2022-08-21T01:35:58.206Z,1.63
2022-08-21T01:39:56.894Z,1.70
2022-08-21T01:43:49.922Z,1.60
2022-08-21T01:52:12.540Z,1.10
2022-08-21T02:00:52.799Z,1.25
2022-08-21T02:04:16.626Z,0.93
2022-08-21T02:08:44.817Z,1.15
2022-08-21T02:12:35.563Z,1.30
2022-08-21T02:17:00.437Z,1.40
2022-08-21T02:30:03.641Z,1.20
2022-08-21T02:33:35.804Z,1.48
2022-08-21T02:37:07.189Z,1.05
2022-08-21T02:40:48.076Z,1.13
2022-08-21T02:44:31.284Z,0.90
2022-08-21T02:48:04.528Z,1.05
2022-08-21T02:51:32.438Z,1.20
2022-08-21T02:55:07.518Z,1.17
2022-08-21T02:58:39.515Z,1.08
2022-08-21T03:02:11.939Z,0.80
2022-08-21T03:05:39.090Z,1.30
2022-08-21T03:09:04.128Z,0.80
2022-08-21T03:12:27.874Z,1.10
2022-08-21T03:15:52.124Z,1.73
2022-08-21T03:32:32.573Z,1.08
2022-08-21T03:36:34.593Z,1.20
2022-08-21T03:44:19.887Z,0.93
2022-08-21T03:48:47.986Z,0.90
2022-08-21T03:52:47.649Z,1.10
2022-08-21T03:57:11.534Z,0.93
2022-08-21T04:00:34.178Z,1.23
2022-08-21T04:04:33.547Z,1.00
2022-08-21T04:12:13.531Z,0.93
2022-08-21T04:16:39.408Z,1.00
2022-08-21T04:20:05.827Z,0.80
2022-08-21T04:23:50.354Z,0.93
2022-08-21T04:28:09.862Z,1.10
2022-08-21T04:32:25.319Z,1.30
2022-08-21T04:36:09.649Z,1.35
2022-08-21T04:40:26.606Z,0.98
2022-08-21T04:50:45.408Z,1.00
2022-08-21T04:55:28.200Z,1.10
2022-08-21T05:00:48.400Z,0.90
2022-08-21T05:05:01.632Z,0.98
2022-08-21T05:12:55.639Z,0.70
2022-08-21T05:17:10.771Z,0.90
2022-08-21T05:20:36.968Z,0.80
2022-08-21T05:23:59.958Z,1.00
2022-08-21T05:27:25.932Z,0.80
2022-08-21T05:30:51.312Z,1.02
2022-08-21T05:34:26.614Z,0.70
2022-08-21T05:37:58.034Z,0.80
2022-08-21T05:41:27.222Z,0.80
2022-08-21T05:45:41.503Z,0.55
2022-08-21T05:49:11.595Z,0.63
2022-08-21T05:52:42.931Z,0.45
2022-08-21T05:56:29.449Z,0.60
2022-08-21T06:00:04.432Z,0.50
2022-08-21T06:03:45.547Z,0.50
2022-08-21T06:07:34.217Z,0.60
2022-08-21T06:11:07.116Z,0.50
2022-08-21T06:14:34.458Z,0.40
2022-08-21T06:17:57.524Z,0.80
2022-08-21T06:21:26.179Z,0.57
2022-08-21T06:25:21.445Z,0.40
2022-08-21T06:28:44.997Z,0.75
2022-08-21T06:32:16.071Z,0.70
2022-08-21T06:35:41.489Z,0.70
2022-08-21T06:39:24.855Z,0.70
2022-08-21T06:43:23.418Z,0.60
2022-08-21T06:47:16.639Z,0.63
2022-08-21T06:50:40.145Z,0.63
2022-08-21T06:54:27.436Z,0.60
2022-08-21T07:05:40.950Z,0.60
2022-08-21T07:09:05.286Z,0.45
2022-08-21T07:12:38.234Z,0.70
2022-08-21T07:16:10.699Z,0.75
2022-08-21T07:19:39.690Z,1.08
2022-08-21T07:23:13.348Z,1.40
2022-08-21T07:26:40.911Z,2.13
2022-08-21T07:30:12.509Z,2.08
2022-08-21T07:33:41.741Z,1.50
2022-08-21T07:37:19.320Z,2.63
2022-08-21T07:40:57.976Z,3.15
2022-08-21T07:44:28.133Z,6.95
2022-08-21T07:48:12.207Z,2.47
2022-08-21T07:51:52.438Z,1.33
2022-08-21T07:55:27.316Z,0.77
2022-08-21T07:59:18.559Z,0.90
2022-08-21T08:03:02.884Z,0.90
2022-08-21T08:06:38.198Z,1.13
2022-08-21T08:10:03.546Z,1.50
2022-08-21T08:13:38.558Z,1.60
2022-08-21T08:20:58.921Z,1.17
2022-08-21T08:28:57.050Z,1.08
2022-08-21T08:32:30.268Z,0.82
2022-08-21T08:36:08.394Z,1.02
2022-08-21T08:39:36.416Z,0.80
2022-08-21T08:43:02.112Z,1.08
2022-08-21T08:47:06.755Z,0.73
2022-08-21T08:50:46.870Z,1.00
2022-08-21T08:54:49.497Z,0.90
2022-08-21T08:58:53.151Z,1.17
2022-08-21T09:02:37.465Z,1.15
2022-08-21T09:06:39.705Z,0.80
2022-08-21T09:10:24.409Z,1.10
2022-08-21T09:14:39.463Z,1.10
2022-08-21T09:18:40.607Z,1.20
2022-08-21T09:22:38.363Z,0.90
2022-08-21T09:26:26.655Z,1.17
2022-08-21T09:30:09.474Z,0.80
2022-08-21T09:33:35.709Z,1.30
2022-08-21T09:37:07.094Z,1.00
2022-08-21T09:40:59.718Z,0.80
2022-08-21T09:44:33.159Z,1.23
2022-08-21T09:48:16.872Z,0.82
2022-08-21T09:59:34.191Z,0.88
2022-08-21T10:03:26.463Z,1.20
2022-08-21T10:06:52.092Z,0.80
2022-08-21T10:10:44.739Z,0.60
2022-08-21T10:19:35.134Z,0.80
2022-08-21T10:23:14.073Z,0.85
2022-08-21T10:27:15.908Z,0.93
2022-08-21T10:31:44.246Z,0.80
2022-08-21T10:35:54.159Z,0.93
2022-08-21T10:39:40.220Z,0.85
2022-08-21T10:43:26.188Z,0.93
2022-08-21T10:47:11.729Z,0.90
2022-08-21T10:50:50.108Z,1.00
2022-08-21T10:54:23.669Z,1.20
2022-08-21T10:58:00.136Z,0.90
2022-08-21T11:05:55.945Z,1.10
2022-08-21T11:14:25.210Z,1.27
2022-08-21T11:18:21.782Z,0.90
2022-08-21T11:22:46.230Z,0.88
2022-08-21T11:35:02.022Z,0.80
2022-08-21T11:43:13.874Z,1.00
2022-08-21T11:47:15.832Z,1.05
2022-08-21T11:51:16.324Z,0.82
2022-08-21T11:55:06.421Z,1.10
2022-08-21T11:58:40.871Z,0.98
2022-08-21T12:02:04.046Z,0.93
2022-08-21T12:05:47.729Z,0.73
2022-08-21T12:09:39.117Z,1.00
2022-08-21T12:13:40.678Z,0.90
2022-08-21T12:17:49.152Z,1.02
2022-08-21T12:21:56.832Z,1.05
2022-08-21T12:26:07.370Z,1.00
2022-08-21T12:29:50.235Z,0.80
2022-08-21T12:33:29.238Z,1.20
2022-08-21T12:37:17.822Z,0.95
2022-08-21T12:49:26.881Z,0.70
2022-08-21T12:53:21.833Z,0.75
2022-08-21T12:57:08.987Z,0.70
2022-08-21T13:00:35.522Z,0.90
2022-08-21T13:08:40.774Z,0.90
2022-08-21T13:16:54.291Z,1.20
2022-08-21T13:20:38.118Z,0.70
2022-08-21T13:24:42.884Z,0.80
2022-08-21T13:32:22.076Z,0.80
2022-08-21T13:36:11.703Z,0.75
2022-08-21T13:39:35.332Z,0.70
2022-08-21T13:43:02.221Z,0.65
2022-08-21T13:46:41.095Z,0.80
2022-08-21T13:50:11.805Z,0.77
2022-08-21T13:53:53.864Z,0.50
2022-08-21T13:57:25.759Z,0.80
2022-08-21T14:00:51.807Z,0.90
2022-08-21T14:04:25.379Z,0.63
2022-08-21T14:08:02.667Z,0.75
2022-08-21T14:11:42.637Z,0.70
2022-08-21T14:15:11.167Z,0.90
2022-08-21T14:18:44.851Z,0.90
2022-08-21T14:22:33.139Z,1.00
2022-08-21T14:26:04.092Z,0.70
2022-08-21T14:29:36.606Z,1.25
2022-08-21T14:33:00.498Z,1.10
2022-08-21T14:36:23.349Z,0.90
2022-08-21T14:40:20.314Z,0.88
2022-08-21T14:44:09.221Z,0.80
2022-08-21T14:51:54.589Z,0.90
2022-08-21T14:59:17.759Z,0.95
2022-08-21T15:03:08.960Z,0.70
2022-08-21T15:11:10.650Z,1.30
2022-08-21T15:14:39.959Z,0.93
2022-08-21T15:22:56.463Z,0.93
2022-08-21T15:31:24.751Z,0.90
2022-08-21T15:35:36.761Z,0.65
2022-08-21T15:39:21.919Z,0.70
2022-08-21T15:46:34.043Z,1.58
2022-08-21T15:49:57.795Z,0.88
2022-08-21T15:53:40.235Z,0.90
2022-08-21T15:57:11.125Z,0.75
2022-08-21T16:01:44.628Z,0.70
2022-08-21T16:05:09.891Z,0.70
2022-08-21T16:08:59.982Z,0.75
2022-08-21T16:12:48.245Z,0.70
2022-08-21T16:16:26.357Z,0.70
2022-08-21T16:20:13.071Z,0.70
2022-08-21T16:23:59.121Z,0.65
2022-08-21T16:27:42.764Z,0.90
2022-08-21T16:31:41.256Z,0.80
2022-08-21T16:43:30.826Z,0.70
2022-08-21T16:47:26.766Z,0.70
2022-08-21T16:50:55.321Z,1.67
2022-08-21T16:54:54.962Z,0.70
2022-08-21T17:03:05.015Z,1.02
2022-08-21T17:06:36.532Z,1.50
2022-08-21T17:10:28.507Z,7.80
2022-08-21T17:14:32.228Z,7.82
2022-08-21T17:18:11.796Z,13.23
2022-08-21T17:26:14.552Z,14.23
2022-08-21T17:30:03.798Z,3.80
2022-08-21T17:33:43.449Z,1.63
2022-08-21T17:37:09.612Z,7.78
2022-08-21T17:44:46.209Z,1.00
2022-08-21T17:48:38.094Z,8.23
2022-08-21T17:56:23.912Z,1.08
2022-08-21T18:00:08.998Z,0.98
2022-08-21T18:03:54.074Z,0.65
2022-08-21T18:19:30.291Z,12.60
2022-08-21T18:23:57.634Z,9.50
2022-08-21T18:27:31.797Z,7.53
2022-08-21T18:30:57.755Z,13.32
2022-08-21T18:34:25.190Z,13.32
2022-08-21T18:37:50.454Z,11.70
2022-08-21T18:41:40.657Z,16.25
2022-08-21T18:45:26.006Z,10.85
2022-08-21T18:49:18.554Z,18.27
2022-08-21T18:52:55.592Z,8.10
2022-08-21T18:56:39.527Z,12.55
2022-08-21T19:00:12.617Z,10.80
2022-08-21T19:03:49.805Z,13.52
2022-08-21T19:07:28.358Z,14.68
2022-08-21T19:11:06.775Z,11.35
2022-08-21T19:14:52.803Z,8.52
2022-08-21T19:18:40.390Z,6.13
2022-08-21T19:22:31.281Z,5.93
2022-08-21T19:26:06.627Z,3.08
2022-08-21T19:29:36.868Z,2.33
2022-08-21T19:33:39.724Z,3.08
2022-08-21T19:37:10.222Z,1.92
2022-08-21T19:40:40.384Z,1.90
2022-08-21T19:44:35.736Z,1.80
2022-08-21T19:48:13.823Z,1.80
2022-08-21T19:52:13.822Z,1.73
2022-08-21T20:00:01.185Z,1.88
2022-08-21T20:03:37.405Z,1.85
2022-08-21T20:07:08.136Z,1.75
2022-08-21T20:10:46.544Z,1.50
2022-08-21T20:14:17.504Z,1.60
2022-08-21T20:18:04.821Z,1.98
2022-08-21T20:26:00.466Z,1.95
2022-08-21T20:33:59.344Z,1.75
2022-08-21T20:41:45.022Z,1.98
2022-08-21T20:45:43.046Z,1.70
2022-08-21T20:49:10.981Z,1.88
2022-08-21T20:56:43.184Z,1.55
2022-08-21T21:01:04.150Z,1.90
2022-08-21T21:04:44.085Z,1.45
2022-08-21T21:08:38.795Z,1.75
2022-08-21T21:12:11.654Z,1.63
2022-08-21T21:15:37.733Z,1.33
2022-08-21T21:19:37.499Z,1.25
2022-08-21T21:23:37.821Z,1.45
2022-08-21T21:27:13.772Z,0.90
2022-08-21T21:30:46.668Z,1.10
2022-08-21T21:34:26.768Z,1.63
2022-08-21T21:38:26.207Z,1.30
2022-08-21T21:42:13.737Z,1.60
2022-08-21T21:46:05.747Z,1.30
2022-08-21T21:49:33.095Z,1.70
2022-08-21T21:53:32.593Z,1.20
2022-08-21T21:57:28.561Z,1.52
2022-08-21T22:00:59.909Z,1.38
2022-08-21T22:04:50.906Z,1.20
2022-08-21T22:08:32.014Z,1.52
2022-08-21T22:15:27.633Z,1.55
2022-08-21T22:18:55.835Z,1.40
2022-08-21T22:22:21.232Z,1.52
2022-08-21T22:25:47.338Z,1.42
2022-08-21T22:29:18.000Z,1.58
2022-08-21T22:32:45.786Z,1.70
2022-08-21T22:36:19.057Z,1.70
2022-08-21T22:39:46.093Z,1.52
2022-08-21T22:43:28.433Z,1.45
2022-08-21T22:47:06.054Z,1.38
2022-08-21T22:50:45.983Z,1.20
2022-08-21T22:54:47.772Z,1.30
2022-08-21T22:58:28.357Z,1.35
2022-08-21T23:02:24.192Z,1.25
2022-08-21T23:05:58.911Z,1.63
2022-08-21T23:09:27.570Z,2.10
2022-08-21T23:12:52.283Z,1.67
2022-08-21T23:16:54.098Z,1.55
2022-08-21T23:29:43.692Z,2.05
2022-08-21T23:33:14.837Z,1.42
2022-08-21T23:37:18.680Z,1.30
2022-08-21T23:41:19.833Z,1.10
2022-08-21T23:45:48.842Z,1.42
2022-08-21T23:49:54.604Z,1.70
2022-08-21T23:53:50.322Z,1.45
2022-08-21T23:57:41.149Z,1.67
